createdAt,value
2023-02-14T00:01:28.996Z,6.90
2023-02-14T00:04:00.831Z,6.90
2023-02-14T00:06:30.007Z,6.90
2023-02-14T00:08:57.337Z,6.90
2023-02-14T00:11:24.761Z,6.90
2023-02-14T00:14:10.517Z,6.90
2023-02-14T00:16:37.903Z,6.90
2023-02-14T00:19:05.610Z,6.90
2023-02-14T00:21:38.044Z,6.90
2023-02-14T00:24:09.750Z,6.90
2023-02-14T00:26:39.914Z,6.90
2023-02-14T00:29:12.790Z,6.90
2023-02-14T00:31:41.131Z,6.80
2023-02-14T00:34:12.190Z,6.90
2023-02-14T00:36:39.751Z,6.80
2023-02-14T00:39:10.484Z,6.80
2023-02-14T00:41:39.022Z,6.80
2023-02-14T00:44:06.719Z,6.80
2023-02-14T00:46:35.010Z,6.80
2023-02-14T00:49:02.593Z,6.80
2023-02-14T00:51:31.288Z,6.80
2023-02-14T00:53:58.548Z,6.80
2023-02-14T00:56:25.763Z,6.80
2023-02-14T00:58:52.975Z,6.80
2023-02-14T01:01:21.288Z,6.80
2023-02-14T01:03:48.599Z,6.90
2023-02-14T01:06:16.214Z,6.80
2023-02-14T01:08:43.524Z,6.80
2023-02-14T01:11:13.668Z,6.80
2023-02-14T01:13:41.910Z,6.80
2023-02-14T01:16:12.007Z,6.80
2023-02-14T01:18:40.067Z,6.80
2023-02-14T01:21:14.502Z,6.80
2023-02-14T01:23:42.342Z,6.80
2023-02-14T01:26:10.880Z,6.80
2023-02-14T01:28:38.451Z,6.80
2023-02-14T01:31:12.339Z,6.80
2023-02-14T01:33:40.921Z,6.80
2023-02-14T01:36:15.693Z,6.80
2023-02-14T01:38:43.148Z,6.80
2023-02-14T01:41:10.677Z,6.80
2023-02-14T01:44:06.574Z,6.80
2023-02-14T01:46:36.760Z,6.80
2023-02-14T01:49:14.117Z,6.80
2023-02-14T01:51:47.535Z,6.80
2023-02-14T01:54:15.247Z,6.80
2023-02-14T01:56:47.929Z,6.80
2023-02-14T01:59:20.712Z,6.70
2023-02-14T02:01:50.205Z,6.70
2023-02-14T02:04:26.436Z,6.70
2023-02-14T02:06:59.809Z,6.80
2023-02-14T02:09:34.317Z,6.70
2023-02-14T02:14:34.673Z,6.70
2023-02-14T02:17:08.296Z,6.70
2023-02-14T02:19:44.429Z,6.70
2023-02-14T02:22:36.168Z,6.70
2023-02-14T02:25:09.629Z,6.70
2023-02-14T02:28:16.060Z,6.70
2023-02-14T02:31:24.663Z,6.70
2023-02-14T02:34:30.584Z,6.70
2023-02-14T02:37:16.266Z,6.60
2023-02-14T02:40:02.020Z,6.60
2023-02-14T02:42:32.078Z,6.60
2023-02-14T02:45:08.099Z,6.60
2023-02-14T02:48:07.742Z,6.70
2023-02-14T02:51:00.213Z,6.70
2023-02-14T02:53:33.691Z,6.70
2023-02-14T02:56:25.235Z,6.70
2023-02-14T02:58:56.784Z,6.60
2023-02-14T03:01:29.663Z,6.60
2023-02-14T03:04:18.073Z,6.60
2023-02-14T03:06:46.453Z,6.60
2023-02-14T03:09:33.670Z,6.60
2023-02-14T03:12:44.289Z,6.60
2023-02-14T03:15:14.112Z,6.60
2023-02-14T03:17:57.262Z,6.60
2023-02-14T03:20:50.025Z,6.60
2023-02-14T03:23:47.532Z,6.60
2023-02-14T03:26:20.225Z,6.60
2023-02-14T03:29:14.168Z,6.60
2023-02-14T03:31:53.477Z,6.60
2023-02-14T03:34:30.804Z,6.40
2023-02-14T03:37:11.718Z,6.40
2023-02-14T03:39:59.964Z,6.50
2023-02-14T03:42:40.203Z,6.40
2023-02-14T03:45:18.760Z,6.40
2023-02-14T03:47:47.825Z,6.50
2023-02-14T03:50:18.592Z,6.50
2023-02-14T03:52:49.924Z,6.50
2023-02-14T03:55:24.056Z,6.50
2023-02-14T03:58:03.909Z,6.50
2023-02-14T04:00:36.212Z,6.50
2023-02-14T04:03:11.976Z,6.50
2023-02-14T04:05:43.676Z,6.50
2023-02-14T04:08:12.307Z,6.40
2023-02-14T04:10:42.131Z,6.50
2023-02-14T04:13:09.696Z,6.50
2023-02-14T04:15:37.222Z,6.50
2023-02-14T04:18:23.782Z,6.50
2023-02-14T04:20:51.044Z,6.50
2023-02-14T04:23:18.219Z,6.50
2023-02-14T04:25:45.936Z,6.50
2023-02-14T04:28:14.351Z,6.50
2023-02-14T04:30:41.692Z,6.50
2023-02-14T04:33:09.234Z,6.40
2023-02-14T04:35:37.419Z,6.40
2023-02-14T04:38:05.295Z,6.40
2023-02-14T04:40:32.574Z,6.50
2023-02-14T04:43:01.661Z,6.50
2023-02-14T04:45:29.167Z,6.40
2023-02-14T04:47:56.468Z,6.50
2023-02-14T04:50:25.664Z,6.50
2023-02-14T04:52:53.747Z,6.40
2023-02-14T04:55:20.940Z,6.40
2023-02-14T04:57:48.134Z,6.40
2023-02-14T05:00:15.875Z,6.50
2023-02-14T05:02:43.110Z,6.40
2023-02-14T05:05:10.661Z,6.40
2023-02-14T05:07:37.957Z,6.40
2023-02-14T05:10:05.844Z,6.40
2023-02-14T05:12:33.089Z,6.50
2023-02-14T05:15:00.250Z,6.50
2023-02-14T05:17:29.868Z,6.50
2023-02-14T05:19:57.188Z,6.40
2023-02-14T05:22:24.358Z,6.40
2023-02-14T05:24:51.772Z,6.40
2023-02-14T05:27:19.056Z,6.40
2023-02-14T05:29:46.323Z,6.40
2023-02-14T05:32:13.683Z,6.30
2023-02-14T05:34:40.887Z,6.40
2023-02-14T05:37:08.125Z,6.40
2023-02-14T05:39:35.382Z,6.40
2023-02-14T05:42:03.342Z,6.40
2023-02-14T05:44:30.613Z,6.40
2023-02-14T05:46:57.816Z,6.30
2023-02-14T05:49:25.022Z,6.40
2023-02-14T05:51:52.526Z,6.40
2023-02-14T05:54:19.769Z,6.40
2023-02-14T05:56:47.040Z,6.30
2023-02-14T05:59:14.995Z,6.30
2023-02-14T06:01:42.348Z,6.40
2023-02-14T06:04:09.605Z,6.40
2023-02-14T06:06:36.934Z,6.40
2023-02-14T06:09:04.174Z,6.30
2023-02-14T06:11:31.968Z,6.30
2023-02-14T06:13:59.334Z,6.40
2023-02-14T06:16:26.726Z,6.40
2023-02-14T06:18:53.954Z,6.40
2023-02-14T06:21:21.091Z,6.40
2023-02-14T06:23:48.462Z,6.40
2023-02-14T06:26:15.714Z,6.30
2023-02-14T06:28:43.030Z,6.40
2023-02-14T06:31:16.841Z,6.40
2023-02-14T06:33:44.114Z,6.40
2023-02-14T06:36:11.837Z,6.30
2023-02-14T06:38:39.069Z,6.40
2023-02-14T06:41:07.991Z,6.40
2023-02-14T06:43:35.628Z,6.40
2023-02-14T06:46:02.994Z,6.40
2023-02-14T06:48:30.387Z,6.40
2023-02-14T06:50:58.119Z,6.40
2023-02-14T06:53:25.638Z,6.40
2023-02-14T06:55:52.982Z,6.40
2023-02-14T06:58:20.374Z,6.40
2023-02-14T07:00:48.156Z,6.40
2023-02-14T07:03:16.143Z,6.40
2023-02-14T07:05:48.241Z,6.40
2023-02-14T07:08:16.219Z,6.40
2023-02-14T07:10:43.633Z,6.40
2023-02-14T07:13:10.873Z,6.50
2023-02-14T07:15:38.149Z,6.50
2023-02-14T07:18:06.779Z,6.50
2023-02-14T07:20:33.973Z,6.50
2023-02-14T07:23:01.715Z,6.60
2023-02-14T07:25:32.054Z,6.60
2023-02-14T07:27:59.496Z,6.60
2023-02-14T07:30:26.877Z,6.60
2023-02-14T07:32:54.621Z,6.60
2023-02-14T07:35:21.836Z,6.60
2023-02-14T07:37:51.175Z,6.60
2023-02-14T07:40:20.188Z,6.60
2023-02-14T07:42:57.573Z,6.70
2023-02-14T07:45:26.946Z,6.70
2023-02-14T07:47:55.767Z,6.60
2023-02-14T07:50:24.186Z,6.70
2023-02-14T07:52:51.671Z,6.70
2023-02-14T07:55:19.518Z,6.70
2023-02-14T07:57:49.841Z,6.80
2023-02-14T08:00:17.712Z,6.80
2023-02-14T08:02:45.081Z,6.90
2023-02-14T08:05:12.413Z,6.80
2023-02-14T08:07:39.590Z,6.70
2023-02-14T08:10:07.529Z,6.80
2023-02-14T08:12:53.133Z,6.90
2023-02-14T08:15:38.668Z,6.90
2023-02-14T08:18:05.956Z,6.90
2023-02-14T08:20:33.130Z,6.90
2023-02-14T08:23:00.409Z,6.90
2023-02-14T08:25:27.995Z,7.00
2023-02-14T08:27:57.946Z,7.00
2023-02-14T08:30:26.530Z,7.10
2023-02-14T08:32:53.842Z,7.10
2023-02-14T08:35:21.066Z,7.00
2023-02-14T08:37:48.412Z,7.00
2023-02-14T08:40:15.609Z,7.10
2023-02-14T08:42:42.785Z,7.20
2023-02-14T08:45:10.430Z,7.20
2023-02-14T08:47:38.788Z,7.20
2023-02-14T08:50:10.758Z,7.20
2023-02-14T08:52:40.445Z,7.30
2023-02-14T08:55:08.002Z,7.30
2023-02-14T08:57:35.221Z,7.20
2023-02-14T09:00:04.755Z,7.30
2023-02-14T09:02:32.122Z,7.20
2023-02-14T09:04:59.426Z,7.30
2023-02-14T09:07:26.757Z,7.30
2023-02-14T09:09:53.962Z,7.30
2023-02-14T09:12:21.286Z,7.30
2023-02-14T09:14:48.528Z,7.30
2023-02-14T09:17:16.788Z,7.30
2023-02-14T09:19:44.007Z,7.40
2023-02-14T09:22:12.689Z,7.40
2023-02-14T09:24:41.612Z,7.40
2023-02-14T09:27:09.363Z,7.50
2023-02-14T09:29:36.798Z,7.50
2023-02-14T09:32:05.271Z,7.50
2023-02-14T09:34:52.847Z,7.50
2023-02-14T09:37:20.183Z,7.60
2023-02-14T09:39:47.464Z,7.60
2023-02-14T09:42:51.814Z,7.50
2023-02-14T09:45:23.071Z,7.60
2023-02-14T09:48:23.819Z,7.70
2023-02-14T09:50:58.567Z,7.70
2023-02-14T09:53:33.309Z,7.70
2023-02-14T09:56:15.715Z,7.80
2023-02-14T09:58:55.416Z,7.70
2023-02-14T10:01:29.386Z,7.70
2023-02-14T10:04:18.342Z,7.80
2023-02-14T10:07:00.808Z,7.80
2023-02-14T10:09:49.787Z,7.90
2023-02-14T10:12:25.959Z,7.90
2023-02-14T10:14:55.894Z,8.00
2023-02-14T10:17:48.432Z,8.00
2023-02-14T10:20:25.806Z,7.80
2023-02-14T10:23:18.131Z,7.90
2023-02-14T10:26:08.142Z,8.10
2023-02-14T10:28:47.351Z,8.10
2023-02-14T10:31:26.479Z,8.10
2023-02-14T10:34:12.901Z,8.10
2023-02-14T10:36:52.272Z,8.10
2023-02-14T10:39:29.052Z,8.00
2023-02-14T10:42:12.077Z,8.10
2023-02-14T10:44:50.683Z,8.30
2023-02-14T10:47:31.765Z,8.40
2023-02-14T10:59:26.115Z,8.50
2023-02-14T11:02:59.839Z,8.50
2023-02-14T11:05:46.564Z,8.50
2023-02-14T11:12:45.617Z,8.60
2023-02-14T11:19:37.564Z,8.70
2023-02-14T11:22:05.164Z,8.80
2023-02-14T11:24:36.087Z,8.90
2023-02-14T11:27:10.559Z,8.90
2023-02-14T11:29:43.696Z,8.90
2023-02-14T11:32:15.616Z,8.90
2023-02-14T11:34:53.058Z,9.00
2023-02-14T11:37:23.908Z,8.90
2023-02-14T11:39:56.258Z,9.00
2023-02-14T11:42:51.604Z,8.90
2023-02-14T11:46:18.332Z,9.10
2023-02-14T11:49:01.647Z,9.20
2023-02-14T11:51:39.212Z,9.20
2023-02-14T11:54:11.778Z,9.10
2023-02-14T11:56:57.207Z,9.10
2023-02-14T11:59:30.960Z,9.10
2023-02-14T12:02:02.791Z,9.00
2023-02-14T12:04:45.698Z,9.00
2023-02-14T12:07:23.094Z,8.90
2023-02-14T12:10:17.167Z,9.00
2023-02-14T12:12:53.576Z,9.00
2023-02-14T12:15:40.930Z,9.00
2023-02-14T12:18:29.506Z,9.00
2023-02-14T12:21:20.522Z,8.90
2023-02-14T12:23:51.627Z,8.80
2023-02-14T12:26:32.292Z,8.90
2023-02-14T12:29:28.014Z,8.90
2023-02-14T12:32:01.198Z,9.00
2023-02-14T12:34:29.014Z,8.80
2023-02-14T12:37:14.022Z,8.70
2023-02-14T12:40:06.021Z,8.80
2023-02-14T12:42:58.144Z,8.70
2023-02-14T12:45:54.534Z,8.50
2023-02-14T12:48:34.072Z,8.30
2023-02-14T12:51:36.515Z,8.40
2023-02-14T12:54:21.892Z,8.50
2023-02-14T12:57:21.329Z,8.50
2023-02-14T13:00:12.856Z,8.60
2023-02-14T13:03:15.391Z,8.70
2023-02-14T13:06:00.905Z,8.60
2023-02-14T13:08:35.453Z,8.50
2023-02-14T13:11:32.802Z,8.50
2023-02-14T13:14:11.349Z,8.50
2023-02-14T13:16:46.311Z,8.50
2023-02-14T13:19:34.974Z,8.50
2023-02-14T13:22:05.180Z,8.60
2023-02-14T13:24:42.668Z,8.50
2023-02-14T13:27:16.444Z,8.60
2023-02-14T13:29:48.498Z,8.30
2023-02-14T13:32:20.089Z,8.10
2023-02-14T13:34:49.036Z,8.20
2023-02-14T13:37:24.291Z,8.20
2023-02-14T13:39:54.211Z,8.20
2023-02-14T13:42:50.161Z,8.10
2023-02-14T13:45:35.542Z,8.10
2023-02-14T13:48:07.276Z,7.90
2023-02-14T13:50:39.429Z,8.00
2023-02-14T13:53:12.968Z,7.90
2023-02-14T13:55:45.754Z,7.90
2023-02-14T13:58:24.042Z,7.90
2023-02-14T14:00:54.247Z,7.70
2023-02-14T14:03:30.501Z,7.50
2023-02-14T14:06:02.671Z,7.60
2023-02-14T14:08:31.541Z,7.50
2023-02-14T14:11:23.926Z,7.50
2023-02-14T14:13:55.257Z,7.70
2023-02-14T14:16:28.913Z,8.00
2023-02-14T14:19:13.144Z,8.00
2023-02-14T14:21:45.460Z,7.90
2023-02-14T14:24:52.231Z,7.80
2023-02-14T14:27:41.968Z,7.90
2023-02-14T14:30:20.576Z,8.00
2023-02-14T14:32:51.214Z,8.20
2023-02-14T14:35:24.248Z,8.20
2023-02-14T14:37:52.655Z,8.00
2023-02-14T14:40:32.373Z,7.80
2023-02-14T14:43:25.736Z,7.40
2023-02-14T14:45:56.270Z,7.30
2023-02-14T14:48:32.408Z,7.40
2023-02-14T14:51:02.951Z,7.60
2023-02-14T14:53:47.189Z,7.70
2023-02-14T14:56:25.153Z,7.70
2023-02-14T14:58:52.907Z,7.70
2023-02-14T15:01:32.280Z,7.70
2023-02-14T15:04:15.216Z,7.60
2023-02-14T15:06:42.517Z,7.50
2023-02-14T15:09:36.304Z,7.50
2023-02-14T15:12:22.524Z,7.40
2023-02-14T15:14:54.886Z,7.20
2023-02-14T15:17:29.072Z,7.10
2023-02-14T15:20:00.900Z,7.30
2023-02-14T15:22:38.453Z,7.40
2023-02-14T15:25:28.193Z,7.50
2023-02-14T15:27:55.588Z,7.40
2023-02-14T15:30:30.009Z,7.40
2023-02-14T15:33:00.640Z,7.40
2023-02-14T15:35:34.635Z,7.20
2023-02-14T15:38:06.507Z,7.00
2023-02-14T15:40:39.099Z,6.90
2023-02-14T15:43:18.659Z,6.70
2023-02-14T15:45:50.491Z,6.80
2023-02-14T15:48:30.958Z,6.90
2023-02-14T15:51:00.566Z,6.80
2023-02-14T15:53:45.007Z,6.80
2023-02-14T15:56:25.872Z,6.90
2023-02-14T15:59:02.777Z,6.80
2023-02-14T16:01:36.007Z,6.80
2023-02-14T16:04:07.037Z,6.80
2023-02-14T16:06:40.076Z,6.80
2023-02-14T16:09:24.977Z,6.50
2023-02-14T16:11:53.904Z,6.50
2023-02-14T16:14:35.353Z,6.40
2023-02-14T16:17:16.589Z,6.40
2023-02-14T16:19:46.516Z,6.50
2023-02-14T16:22:28.240Z,6.30
2023-02-14T16:24:55.769Z,6.40
2023-02-14T16:27:26.501Z,6.30
2023-02-14T16:29:55.355Z,6.30
2023-02-14T16:32:25.603Z,6.30
2023-02-14T16:34:53.401Z,6.30
2023-02-14T16:37:22.520Z,6.20
2023-02-14T16:39:52.922Z,6.10
2023-02-14T16:42:23.716Z,6.10
2023-02-14T16:44:54.539Z,6.10
2023-02-14T16:47:22.116Z,6.00
2023-02-14T16:49:50.896Z,5.80
2023-02-14T16:52:26.134Z,5.60
2023-02-14T16:54:53.742Z,5.70
2023-02-14T16:57:27.751Z,5.70
2023-02-14T16:59:56.998Z,5.80
2023-02-14T17:02:29.022Z,5.70
2023-02-14T17:04:56.981Z,5.70
2023-02-14T17:07:29.656Z,5.70
2023-02-14T17:10:04.230Z,5.70
2023-02-14T17:12:35.430Z,5.60
2023-02-14T17:15:13.773Z,5.60
2023-02-14T17:17:41.544Z,5.60
2023-02-14T17:20:09.476Z,5.70
2023-02-14T17:22:38.281Z,5.80
2023-02-14T17:25:06.496Z,5.80
2023-02-14T17:27:33.825Z,5.80
2023-02-14T17:30:01.504Z,5.80
2023-02-14T17:32:31.787Z,5.80
2023-02-14T17:35:01.249Z,5.90
2023-02-14T17:37:31.920Z,5.90
2023-02-14T17:39:59.374Z,5.90
2023-02-14T17:42:26.858Z,5.90
2023-02-14T17:44:55.006Z,5.90
2023-02-14T17:47:22.681Z,5.90
2023-02-14T17:49:50.169Z,6.00
2023-02-14T17:52:18.112Z,6.00
2023-02-14T17:54:45.595Z,5.90
2023-02-14T17:57:13.298Z,5.90
2023-02-14T17:59:40.583Z,5.90
2023-02-14T18:02:10.448Z,5.90
2023-02-14T18:04:38.121Z,5.80
2023-02-14T18:07:06.222Z,5.70
2023-02-14T18:09:35.741Z,5.60
2023-02-14T18:12:04.096Z,5.70
2023-02-14T18:14:31.638Z,5.60
2023-02-14T18:16:58.852Z,5.60
2023-02-14T18:19:26.072Z,5.60
2023-02-14T18:21:53.713Z,5.60
2023-02-14T18:24:21.092Z,5.70
2023-02-14T18:26:48.274Z,5.60
2023-02-14T18:29:15.597Z,5.60
2023-02-14T18:31:44.479Z,5.60
2023-02-14T18:34:13.144Z,5.60
2023-02-14T18:36:41.956Z,5.70
2023-02-14T18:39:13.025Z,5.70
2023-02-14T18:41:42.809Z,5.60
2023-02-14T18:44:10.275Z,5.40
2023-02-14T18:46:40.377Z,5.30
2023-02-14T18:49:08.610Z,5.10
2023-02-14T18:51:39.640Z,5.10
2023-02-14T18:54:07.381Z,5.10
2023-02-14T18:56:37.079Z,5.00
2023-02-14T18:59:08.275Z,5.00
2023-02-14T19:01:42.204Z,4.90
2023-02-14T19:04:12.446Z,4.90
2023-02-14T19:06:42.907Z,4.80
2023-02-14T19:09:14.877Z,4.80
2023-02-14T19:11:42.229Z,4.70
2023-02-14T19:14:10.569Z,4.60
2023-02-14T19:16:44.121Z,4.60
2023-02-14T19:19:11.810Z,4.60
2023-02-14T19:21:39.243Z,4.50
2023-02-14T19:24:07.444Z,4.50
2023-02-14T19:26:40.315Z,4.30
2023-02-14T19:29:16.885Z,4.30
2023-02-14T19:31:48.390Z,4.30
2023-02-14T19:34:18.615Z,4.30
2023-02-14T19:36:46.514Z,4.30
2023-02-14T19:39:14.283Z,4.20
2023-02-14T19:41:44.207Z,4.20
2023-02-14T19:44:17.134Z,4.00
2023-02-14T19:46:48.894Z,4.00
2023-02-14T19:49:19.073Z,3.90
2023-02-14T19:51:47.932Z,3.90
2023-02-14T19:54:15.584Z,3.80
2023-02-14T19:56:45.491Z,3.80
2023-02-14T19:59:16.429Z,4.00
2023-02-14T20:01:54.971Z,4.00
2023-02-14T20:04:29.043Z,4.00
2023-02-14T20:06:57.746Z,4.00
2023-02-14T20:09:25.844Z,4.00
2023-02-14T20:11:56.794Z,3.90
2023-02-14T20:14:26.309Z,3.80
2023-02-14T20:16:55.873Z,3.80
2023-02-14T20:19:28.017Z,3.80
2023-02-14T20:21:56.749Z,3.80
2023-02-14T20:24:29.946Z,3.80
2023-02-14T20:26:57.922Z,3.70
2023-02-14T20:29:26.699Z,3.60
2023-02-14T20:31:58.204Z,3.60
2023-02-14T20:34:26.854Z,3.60
2023-02-14T20:36:56.020Z,3.60
2023-02-14T20:39:34.644Z,3.60
2023-02-14T20:42:02.061Z,3.50
2023-02-14T20:44:30.521Z,3.50
2023-02-14T20:46:57.938Z,3.40
2023-02-14T20:49:27.452Z,3.30
2023-02-14T20:51:56.156Z,3.30
2023-02-14T20:54:25.354Z,3.30
2023-02-14T20:56:53.245Z,3.20
2023-02-14T20:59:27.214Z,3.30
2023-02-14T21:01:57.198Z,3.30
2023-02-14T21:04:25.455Z,3.30
2023-02-14T21:06:52.754Z,3.30
2023-02-14T21:09:20.935Z,3.30
2023-02-14T21:11:48.227Z,3.20
2023-02-14T21:14:17.520Z,3.20
2023-02-14T21:16:44.833Z,3.10
2023-02-14T21:19:12.043Z,3.00
2023-02-14T21:21:39.820Z,3.00
2023-02-14T21:24:13.385Z,3.00
2023-02-14T21:26:41.547Z,2.90
2023-02-14T21:29:09.785Z,2.90
2023-02-14T21:31:37.124Z,2.90
2023-02-14T21:34:04.949Z,3.00
2023-02-14T21:36:35.893Z,3.00
2023-02-14T21:39:05.009Z,2.90
2023-02-14T21:41:32.624Z,2.80
2023-02-14T21:44:01.496Z,2.90
2023-02-14T21:46:31.797Z,2.90
2023-02-14T21:49:22.376Z,3.00
2023-02-14T21:51:49.792Z,3.00
2023-02-14T21:54:17.727Z,2.90
2023-02-14T21:56:45.389Z,2.90
2023-02-14T21:59:14.030Z,2.90
2023-02-14T22:01:43.465Z,2.70
2023-02-14T22:04:12.576Z,2.60
2023-02-14T22:06:41.963Z,2.40
2023-02-14T22:09:11.257Z,2.30
2023-02-14T22:11:41.038Z,2.30
2023-02-14T22:14:15.149Z,2.50
2023-02-14T22:16:43.739Z,2.60
2023-02-14T22:19:17.473Z,2.50
2023-02-14T22:21:45.435Z,2.60
2023-02-14T22:24:16.324Z,2.60
2023-02-14T22:26:43.945Z,2.50
2023-02-14T22:29:13.117Z,2.60
2023-02-14T22:31:43.967Z,2.70
2023-02-14T22:34:21.455Z,2.60
2023-02-14T22:36:54.357Z,2.60
2023-02-14T22:39:24.675Z,2.40
2023-02-14T22:41:52.529Z,2.20
2023-02-14T22:44:20.896Z,2.20
2023-02-14T22:46:48.373Z,2.10
2023-02-14T22:49:15.915Z,1.90
2023-02-14T22:51:43.401Z,1.80
2023-02-14T22:54:15.371Z,1.90
2023-02-14T22:56:49.463Z,1.90
2023-02-14T22:59:24.916Z,2.00
2023-02-14T23:01:53.352Z,1.90
2023-02-14T23:04:23.051Z,2.00
2023-02-14T23:06:52.183Z,1.90
2023-02-14T23:09:20.282Z,1.80
2023-02-14T23:11:48.863Z,1.70
2023-02-14T23:14:36.343Z,1.80
2023-02-14T23:17:23.164Z,1.80
2023-02-14T23:20:09.020Z,1.80
2023-02-14T23:22:41.235Z,1.80
2023-02-14T23:25:11.183Z,1.90
2023-02-14T23:27:49.355Z,1.90
2023-02-14T23:30:19.667Z,1.90
2023-02-14T23:32:47.091Z,1.80
2023-02-14T23:35:15.238Z,1.80
2023-02-14T23:37:42.561Z,1.90
2023-02-14T23:40:12.281Z,1.90
2023-02-14T23:42:39.730Z,1.80
2023-02-14T23:45:26.004Z,1.90
2023-02-14T23:47:53.327Z,2.00
2023-02-14T23:50:20.696Z,2.10
2023-02-14T23:52:48.235Z,2.10
2023-02-14T23:55:15.601Z,2.00
2023-02-14T23:57:42.804Z,2.00
